Time;durP1;ratioP1;P1;durP2;ratioP2;P2;SDS_P1;SDS_P2;PMS_P1;PMS_P2;Temp;Humidity;BMP_temperature;BMP_pressure;BME280_temperature;BME280_humidity;BME280_pressure;Samples;Min_cycle;Max_cycle;Signal;HPM_P1;HPM_P2
2022/10/22 00:01:48;;;;;;;0.90;0.80;;;11.50;99.90;;;;;;4181578;28;20181;-72
2022/10/22 00:03:49;;;;;;;2.13;1.03;;;11.50;99.90;;;;;;4182259;28;20216;-72
2022/10/22 00:05:49;;;;;;;1.57;0.80;;;11.50;99.90;;;;;;4182101;28;20644;-72
2022/10/22 00:07:50;;;;;;;2.30;0.90;;;11.40;99.90;;;;;;4180919;28;20184;-72
2022/10/22 00:09:50;;;;;;;1.47;1.10;;;11.40;99.90;;;;;;4182217;28;20177;-72
2022/10/22 00:11:51;;;;;;;3.70;1.17;;;11.50;99.90;;;;;;4181391;28;20184;-71
2022/10/22 00:13:51;;;;;;;1.07;0.90;;;11.40;99.90;;;;;;4181806;28;20580;-72
2022/10/22 00:15:52;;;;;;;1.30;0.87;;;11.40;99.90;;;;;;4181852;28;20184;-72
2022/10/22 00:17:52;;;;;;;2.13;0.90;;;11.30;99.90;;;;;;4181659;28;20183;-72
2022/10/22 00:19:53;;;;;;;1.63;0.70;;;11.30;99.90;;;;;;4181585;28;20196;-72
2022/10/22 00:21:54;;;;;;;4.87;1.10;;;11.30;99.90;;;;;;4181605;28;20195;-72
2022/10/22 00:23:55;;;;;;;2.33;1.17;;;11.10;99.90;;;;;;4181386;28;20188;-72
2022/10/22 00:25:56;;;;;;;3.40;1.30;;;11.10;99.90;;;;;;4181297;28;20264;-71
2022/10/22 00:27:56;;;;;;;2.47;1.00;;;11.20;99.90;;;;;;4181284;28;20199;-72
2022/10/22 00:29:57;;;;;;;5.03;1.97;;;11.30;99.90;;;;;;4181081;28;20194;-71
2022/10/22 00:31:57;;;;;;;3.20;1.23;;;11.30;99.90;;;;;;4180752;28;20188;-72
2022/10/22 00:33:58;;;;;;;2.23;1.20;;;11.30;99.90;;;;;;4181149;28;20181;-72
2022/10/22 00:35:58;;;;;;;2.47;1.30;;;11.20;99.90;;;;;;4180987;28;20234;-72
2022/10/22 00:37:59;;;;;;;2.63;1.20;;;11.20;99.90;;;;;;4181106;28;20274;-72
2022/10/22 00:39:59;;;;;;;2.50;1.20;;;11.30;99.90;;;;;;4181157;28;20672;-72
2022/10/22 00:42:00;;;;;;;3.30;1.57;;;11.30;99.90;;;;;;4180734;28;20550;-72
2022/10/22 00:44:04;;;;;;;2.67;1.40;;;11.30;99.90;;;;;;4181443;28;20651;-72
2022/10/22 00:46:05;;;;;;;5.40;1.30;;;11.20;99.90;;;;;;4181351;28;20208;-72
2022/10/22 00:48:11;;;;;;;1.63;1.20;;;11.00;99.90;;;;;;4181744;28;20246;-72
2022/10/22 00:50:20;;;;;;;2.90;1.27;;;11.10;99.90;;;;;;4179892;28;20212;-71
2022/10/22 00:52:21;;;;;;;1.60;1.30;;;11.20;99.90;;;;;;4181369;28;20187;-72
2022/10/22 00:54:22;;;;;;;4.23;1.33;;;11.30;99.90;;;;;;4181132;28;20732;-72
2022/10/22 00:56:23;;;;;;;1.93;1.10;;;11.30;99.90;;;;;;4181092;28;20205;-72
2022/10/22 00:58:26;;;;;;;2.93;1.20;;;11.30;99.90;;;;;;4194336;28;20187;-72
2022/10/22 01:00:27;;;;;;;3.97;2.10;;;11.30;99.90;;;;;;4196844;28;20690;-72
2022/10/22 01:02:28;;;;;;;8.33;1.47;;;11.30;99.90;;;;;;4197417;28;20188;-71
2022/10/22 01:04:28;;;;;;;3.03;1.10;;;11.30;99.90;;;;;;4197692;28;20182;-72
2022/10/22 01:06:32;;;;;;;1.90;1.20;;;11.30;99.90;;;;;;4196325;28;20546;-72
2022/10/22 01:08:53;;;;;;;1.37;1.20;;;11.30;99.90;;;;;;4197867;27;20192;-72
2022/10/22 01:11:17;;;;;;;4.67;1.53;;;11.40;99.90;;;;;;4196803;28;20237;-73
2022/10/22 01:13:35;;;;;;;1.47;1.07;;;11.30;99.90;;;;;;4197612;28;20717;-72
2022/10/22 01:15:51;;;;;;;3.23;1.20;;;11.30;99.90;;;;;;4197545;28;20187;-73
2022/10/22 01:18:08;;;;;;;1.77;1.30;;;11.30;99.90;;;;;;4197495;28;20176;-72
2022/10/22 01:20:38;;;;;;;3.23;1.37;;;11.30;99.90;;;;;;4197130;28;20298;-73
2022/10/22 01:22:44;;;;;;;1.80;1.03;;;11.30;99.90;;;;;;4197142;28;20249;-73
2022/10/22 01:25:03;;;;;;;2.17;1.20;;;11.30;99.90;;;;;;4196975;28;20183;-72
2022/10/22 01:27:41;;;;;;;2.27;1.10;;;11.30;99.90;;;;;;4197120;28;20211;-72
2022/10/22 01:29:56;;;;;;;6.10;1.50;;;11.30;99.90;;;;;;4196929;28;20187;-73
2022/10/22 01:32:11;;;;;;;4.40;1.10;;;11.30;99.90;;;;;;4196903;28;20198;-73
2022/10/22 01:34:16;;;;;;;3.07;1.00;;;11.30;99.90;;;;;;4197360;28;20195;-72
2022/10/22 01:36:17;;;;;;;2.63;1.23;;;11.30;99.90;;;;;;4197024;28;20256;-72
2022/10/22 01:38:22;;;;;;;3.23;1.20;;;11.30;99.90;;;;;;4196944;28;20187;-72
2022/10/22 01:40:23;;;;;;;1.73;1.17;;;11.30;99.90;;;;;;4196199;28;20218;-72
2022/10/22 01:42:24;;;;;;;1.77;0.83;;;11.20;99.90;;;;;;4196879;28;20175;-72
2022/10/22 01:44:27;;;;;;;1.60;1.00;;;11.20;99.90;;;;;;4196613;28;20263;-72
2022/10/22 01:46:28;;;;;;;3.10;1.03;;;11.30;99.90;;;;;;4196593;28;20226;-73
2022/10/22 01:48:32;;;;;;;2.80;1.10;;;11.30;99.90;;;;;;4196837;28;20191;-73
2022/10/22 01:51:02;;;;;;;4.27;1.50;;;11.20;99.90;;;;;;4196003;28;20215;-72
2022/10/22 01:53:02;;;;;;;5.43;1.10;;;11.20;99.90;;;;;;4196684;28;20198;-73
2022/10/22 01:55:21;;;;;;;2.37;0.80;;;11.10;99.90;;;;;;4196667;28;20187;-72
2022/10/22 01:57:31;;;;;;;2.20;1.00;;;11.20;99.90;;;;;;4196707;28;20694;-72
2022/10/22 01:59:50;;;;;;;0.97;0.80;;;11.10;99.90;;;;;;4196733;28;20211;-72
2022/10/22 02:02:25;;;;;;;5.83;1.17;;;11.20;99.90;;;;;;4196272;28;20184;-73
2022/10/22 02:04:34;;;;;;;3.90;1.40;;;11.30;99.90;;;;;;4196784;28;20186;-73
2022/10/22 02:06:37;;;;;;;2.10;1.40;;;11.20;99.90;;;;;;4196339;28;20286;-73
2022/10/22 02:08:39;;;;;;;2.83;1.30;;;11.20;99.90;;;;;;4196773;28;20595;-73
2022/10/22 02:10:44;;;;;;;1.53;1.30;;;11.20;99.90;;;;;;4195934;28;20993;-72
2022/10/22 02:12:48;;;;;;;1.93;1.00;;;11.20;99.90;;;;;;4196196;28;20200;-72
2022/10/22 02:14:50;;;;;;;1.87;0.80;;;11.20;99.90;;;;;;4196166;28;20191;-72
2022/10/22 02:16:51;;;;;;;2.23;1.00;;;11.20;99.90;;;;;;4197062;28;20214;-72
2022/10/22 02:18:55;;;;;;;1.97;0.70;;;11.20;99.90;;;;;;4196415;28;20678;-73
2022/10/22 02:20:57;;;;;;;1.93;0.90;;;11.30;99.90;;;;;;4195525;28;20194;-73
2022/10/22 02:22:59;;;;;;;1.40;0.90;;;11.30;99.90;;;;;;4196667;28;20655;-72
2022/10/22 02:25:00;;;;;;;0.80;0.80;;;11.30;99.90;;;;;;4196493;28;20324;-72
2022/10/22 02:27:11;;;;;;;1.90;1.43;;;11.30;99.90;;;;;;4196509;28;20595;-72
2022/10/22 02:29:18;;;;;;;2.17;1.00;;;11.40;99.90;;;;;;4196395;28;20187;-73
2022/10/22 02:31:23;;;;;;;3.70;1.40;;;11.50;99.90;;;;;;4195313;28;20188;-73
2022/10/22 02:33:28;;;;;;;2.53;1.60;;;11.40;99.90;;;;;;4196274;28;20272;-72
2022/10/22 02:35:30;;;;;;;1.40;1.30;;;11.40;99.90;;;;;;4196176;28;20263;-72
2022/10/22 02:37:31;;;;;;;3.33;1.70;;;11.30;99.90;;;;;;4196422;28;20583;-73
2022/10/22 02:39:32;;;;;;;3.33;1.57;;;11.20;99.90;;;;;;4196241;28;20222;-72
2022/10/22 02:41:34;;;;;;;4.93;1.50;;;11.10;99.90;;;;;;4195449;28;20216;-72
2022/10/22 02:43:53;;;;;;;4.07;1.90;;;11.10;99.90;;;;;;4196128;28;20552;-72
2022/10/22 02:45:54;;;;;;;3.80;1.70;;;11.20;99.90;;;;;;4194404;28;20180;-72
2022/10/22 02:47:54;;;;;;;3.63;1.40;;;11.20;99.90;;;;;;4195868;28;20205;-72
2022/10/22 02:49:55;;;;;;;2.53;1.60;;;11.20;99.90;;;;;;4196225;28;20199;-72
2022/10/22 02:51:55;;;;;;;4.03;1.77;;;11.20;99.90;;;;;;4187961;28;20191;-72
2022/10/22 02:53:56;;;;;;;9.17;2.10;;;11.20;99.90;;;;;;4195684;28;20192;-72
2022/10/22 02:55:57;;;;;;;3.13;1.37;;;11.20;99.90;;;;;;4211154;28;20191;-72
2022/10/22 02:57:58;;;;;;;2.17;1.20;;;11.20;99.90;;;;;;4195954;28;20184;-71
2022/10/22 02:59:59;;;;;;;1.67;1.23;;;11.10;99.90;;;;;;4195867;28;20211;-71
2022/10/22 03:01:59;;;;;;;2.13;1.20;;;11.10;99.90;;;;;;4192417;28;20179;-72
2022/10/22 03:04:00;;;;;;;2.23;1.00;;;11.00;99.90;;;;;;4195529;28;20179;-72
2022/10/22 03:06:00;;;;;;;2.37;1.00;;;10.90;99.90;;;;;;4195672;28;20203;-72
2022/10/22 03:08:01;;;;;;;1.57;1.07;;;10.90;99.90;;;;;;4194423;28;20573;-72
2022/10/22 03:10:02;;;;;;;1.30;1.10;;;10.90;99.90;;;;;;4196168;28;20707;-72
2022/10/22 03:12:03;;;;;;;1.50;0.80;;;11.00;99.90;;;;;;4194466;28;20287;-72
2022/10/22 03:14:04;;;;;;;7.37;3.43;;;11.00;99.90;;;;;;4195643;28;20662;-72
2022/10/22 03:16:05;;;;;;;4.07;1.20;;;11.00;99.90;;;;;;4194627;28;20583;-73
2022/10/22 03:18:05;;;;;;;1.20;0.90;;;11.10;99.90;;;;;;4195611;28;20200;-73
2022/10/22 03:20:06;;;;;;;1.03;0.93;;;11.10;99.90;;;;;;4195599;28;20741;-72
2022/10/22 03:22:13;;;;;;;1.23;0.90;;;11.10;99.90;;;;;;4195026;28;20206;-73
2022/10/22 03:24:18;;;;;;;1.40;1.00;;;11.10;99.90;;;;;;4195695;28;20191;-72
2022/10/22 03:26:19;;;;;;;3.00;1.03;;;11.10;99.90;;;;;;4195301;28;20207;-72
2022/10/22 03:28:20;;;;;;;1.17;0.90;;;11.10;99.90;;;;;;4195484;28;20245;-72
2022/10/22 03:30:21;;;;;;;3.70;0.90;;;11.20;99.90;;;;;;4194835;28;20203;-72
2022/10/22 03:32:21;;;;;;;1.37;0.70;;;11.20;99.90;;;;;;4195251;28;20191;-72
2022/10/22 03:34:22;;;;;;;0.97;0.70;;;11.20;99.90;;;;;;4195322;28;20591;-72
2022/10/22 03:36:23;;;;;;;1.37;0.80;;;11.20;99.90;;;;;;4195352;28;20247;-72
2022/10/22 03:38:23;;;;;;;1.13;0.73;;;11.20;99.90;;;;;;4195503;28;20195;-72
2022/10/22 03:40:24;;;;;;;2.80;0.80;;;11.20;99.90;;;;;;4194888;28;20214;-72
2022/10/22 03:42:25;;;;;;;2.60;0.90;;;11.30;99.90;;;;;;4195301;28;20180;-73
2022/10/22 03:44:26;;;;;;;4.70;1.00;;;11.20;99.90;;;;;;4195385;28;20190;-73
2022/10/22 03:46:27;;;;;;;2.20;0.90;;;11.20;99.90;;;;;;4195363;28;20712;-72
2022/10/22 03:48:28;;;;;;;1.03;0.80;;;11.20;99.90;;;;;;4195737;28;20180;-72
2022/10/22 03:50:28;;;;;;;1.07;0.93;;;11.20;99.90;;;;;;4194331;28;20194;-72
2022/10/22 03:52:37;;;;;;;2.50;0.87;;;11.20;99.90;;;;;;4195343;28;20223;-71
2022/10/22 03:54:39;;;;;;;1.20;0.87;;;11.20;99.90;;;;;;4195289;28;20183;-72
2022/10/22 03:56:39;;;;;;;0.80;0.80;;;11.30;99.90;;;;;;4195420;28;20580;-72
2022/10/22 03:58:41;;;;;;;1.13;0.80;;;11.20;99.90;;;;;;4195177;28;20195;-72
2022/10/22 04:00:41;;;;;;;0.57;0.53;;;11.20;99.90;;;;;;4194286;28;20218;-71
2022/10/22 04:02:42;;;;;;;1.07;0.70;;;11.10;99.90;;;;;;4194921;28;20183;-72
2022/10/22 04:04:42;;;;;;;1.93;0.80;;;11.00;99.90;;;;;;4194964;28;20191;-71
2022/10/22 04:06:43;;;;;;;2.63;0.80;;;11.00;99.90;;;;;;4195207;28;20206;-72
2022/10/22 04:08:44;;;;;;;0.97;0.90;;;11.00;99.90;;;;;;4195014;28;20283;-71
2022/10/22 04:10:50;;;;;;;1.20;0.70;;;11.00;99.90;;;;;;4193306;28;20332;-72
2022/10/22 04:12:51;;;;;;;1.50;0.70;;;10.90;99.90;;;;;;4195049;28;20219;-72
2022/10/22 04:14:52;;;;;;;1.13;0.90;;;10.90;99.90;;;;;;4194965;28;20233;-72
2022/10/22 04:16:52;;;;;;;1.50;0.90;;;10.90;99.90;;;;;;4195323;28;20214;-72
2022/10/22 04:18:53;;;;;;;0.97;0.60;;;10.90;99.90;;;;;;4194914;28;20215;-72
2022/10/22 04:20:53;;;;;;;3.60;0.70;;;10.90;99.90;;;;;;4194471;28;20268;-72
2022/10/22 04:22:54;;;;;;;0.90;0.67;;;10.90;99.90;;;;;;4195288;28;20226;-72
2022/10/22 04:24:55;;;;;;;1.67;0.87;;;10.90;99.90;;;;;;4196858;28;20521;-72
2022/10/22 04:26:55;;;;;;;1.70;0.90;;;10.90;99.90;;;;;;4198413;28;20203;-72
2022/10/22 04:28:56;;;;;;;2.10;0.90;;;10.80;99.90;;;;;;4197990;28;20180;-72
2022/10/22 04:30:57;;;;;;;1.47;0.77;;;10.70;99.90;;;;;;4197508;28;20267;-72
2022/10/22 04:32:57;;;;;;;2.37;0.90;;;10.60;99.90;;;;;;4196864;28;20229;-72
2022/10/22 04:34:58;;;;;;;1.33;0.90;;;10.50;99.90;;;;;;4197961;28;20183;-72
2022/10/22 04:36:58;;;;;;;2.07;1.00;;;10.40;99.90;;;;;;4198292;28;20204;-72
2022/10/22 04:39:00;;;;;;;1.37;1.23;;;10.40;99.90;;;;;;4197954;28;20190;-72
2022/10/22 04:41:19;;;;;;;1.73;1.00;;;10.30;99.90;;;;;;4197078;28;20211;-72
2022/10/22 04:43:19;;;;;;;2.90;1.40;;;10.30;99.90;;;;;;4197769;28;20188;-72
2022/10/22 04:45:20;;;;;;;1.77;1.40;;;10.30;99.90;;;;;;4197642;28;20643;-71
2022/10/22 04:47:20;;;;;;;4.40;2.03;;;10.40;99.90;;;;;;4197854;28;20322;-71
2022/10/22 04:49:21;;;;;;;5.87;2.30;;;10.50;99.90;;;;;;4197672;28;20195;-71
2022/10/22 04:51:23;;;;;;;7.53;3.07;;;10.50;99.90;;;;;;4196867;28;20249;-72
2022/10/22 04:53:24;;;;;;;6.43;2.87;;;10.50;99.90;;;;;;4197765;28;20234;-72
2022/10/22 04:55:25;;;;;;;6.90;2.50;;;10.60;99.90;;;;;;4183679;28;20192;-72
2022/10/22 04:57:29;;;;;;;8.80;3.23;;;10.70;99.90;;;;;;4180984;28;20204;-72
2022/10/22 04:59:30;;;;;;;6.83;3.43;;;10.70;99.90;;;;;;4181288;28;20224;-72
2022/10/22 05:01:35;;;;;;;7.13;3.23;;;10.80;99.90;;;;;;4180220;28;20188;-72
2022/10/22 05:03:36;;;;;;;6.03;2.60;;;10.90;99.90;;;;;;4187890;28;20219;-72
2022/10/22 05:05:36;;;;;;;5.50;2.90;;;10.90;99.90;;;;;;4197311;28;20191;-72
2022/10/22 05:07:37;;;;;;;5.73;2.20;;;10.80;99.90;;;;;;4197449;28;20294;-72
2022/10/22 05:09:37;;;;;;;5.63;2.50;;;10.90;99.90;;;;;;4196190;28;20234;-72
2022/10/22 05:11:45;;;;;;;5.00;2.50;;;10.80;99.90;;;;;;4196613;28;20180;-73
2022/10/22 05:13:46;;;;;;;5.03;2.80;;;10.80;99.90;;;;;;4197448;28;20302;-72
2022/10/22 05:15:46;;;;;;;4.43;2.40;;;10.80;99.90;;;;;;4197234;28;20666;-72
2022/10/22 05:17:47;;;;;;;7.13;3.00;;;10.90;99.90;;;;;;4197435;28;20218;-72
2022/10/22 05:19:47;;;;;;;4.33;2.63;;;10.90;99.90;;;;;;4197195;28;20211;-72
2022/10/22 05:21:48;;;;;;;3.67;2.00;;;10.90;99.90;;;;;;4196558;28;20267;-72
2022/10/22 05:23:49;;;;;;;4.67;2.40;;;11.00;99.90;;;;;;4196965;28;20677;-72
2022/10/22 05:25:50;;;;;;;4.00;2.43;;;11.10;99.90;;;;;;4197078;28;20209;-72
2022/10/22 05:27:50;;;;;;;5.23;2.63;;;11.10;99.90;;;;;;4197065;28;20730;-72
2022/10/22 05:29:51;;;;;;;5.07;2.80;;;11.20;99.90;;;;;;4196926;28;20209;-72
2022/10/22 05:31:52;;;;;;;6.53;3.00;;;11.30;99.90;;;;;;4196228;28;20176;-72
2022/10/22 05:33:53;;;;;;;5.00;2.83;;;11.40;99.90;;;;;;4196634;28;20214;-72
2022/10/22 05:35:54;;;;;;;6.57;3.10;;;11.40;99.90;;;;;;4196215;28;20195;-72
2022/10/22 05:37:55;;;;;;;11.13;3.43;;;11.40;99.90;;;;;;4196882;28;20179;-72
2022/10/22 05:39:55;;;;;;;7.97;3.10;;;11.40;99.90;;;;;;4196476;28;20253;-72
2022/10/22 05:41:56;;;;;;;10.83;4.10;;;11.40;99.90;;;;;;4196055;28;20329;-72
2022/10/22 05:43:58;;;;;;;12.33;4.17;;;11.50;99.90;;;;;;4196478;28;20179;-72
2022/10/22 05:46:04;;;;;;;10.43;3.57;;;11.50;99.90;;;;;;4196400;28;20738;-72
2022/10/22 05:48:06;;;;;;;13.93;4.50;;;11.40;99.90;;;;;;4196737;28;20224;-72
2022/10/22 05:50:07;;;;;;;13.10;4.13;;;11.50;99.90;;;;;;4196642;28;20677;-72
2022/10/22 05:52:07;;;;;;;20.63;4.57;;;11.50;99.90;;;;;;4195644;28;20195;-72
2022/10/22 05:54:15;;;;;;;16.00;4.57;;;11.50;99.90;;;;;;4196588;28;20183;-72
2022/10/22 05:56:16;;;;;;;10.40;3.27;;;11.40;99.90;;;;;;4196568;28;20297;-72
2022/10/22 05:58:16;;;;;;;11.87;4.13;;;11.40;99.90;;;;;;4196442;28;20723;-72
2022/10/22 06:00:17;;;;;;;25.23;4.73;;;11.40;99.90;;;;;;4195654;28;20215;-72
2022/10/22 06:02:17;;;;;;;12.57;3.67;;;11.40;99.90;;;;;;4196370;28;20301;-72
2022/10/22 06:04:18;;;;;;;12.13;3.93;;;11.40;99.90;;;;;;4196376;28;20192;-72
2022/10/22 06:06:29;;;;;;;9.37;3.20;;;11.30;99.90;;;;;;4196156;28;20235;-72
2022/10/22 06:08:30;;;;;;;9.13;3.33;;;11.30;99.90;;;;;;4196339;28;20176;-72
2022/10/22 06:10:30;;;;;;;7.43;2.93;;;11.30;99.90;;;;;;4195611;28;20262;-72
2022/10/22 06:12:31;;;;;;;7.80;3.27;;;11.30;99.90;;;;;;4196239;28;20191;-72
2022/10/22 06:14:32;;;;;;;6.57;3.10;;;11.20;99.90;;;;;;4196044;28;20180;-72
2022/10/22 06:16:33;;;;;;;8.87;3.87;;;11.20;99.90;;;;;;4196008;28;20705;-72
2022/10/22 06:18:33;;;;;;;21.07;5.20;;;11.20;99.90;;;;;;4195893;28;20187;-73
2022/10/22 06:20:34;;;;;;;10.07;3.67;;;11.20;99.90;;;;;;4195141;28;20242;-72
2022/10/22 06:22:34;;;;;;;10.17;3.83;;;11.20;99.90;;;;;;4195814;28;20182;-72
2022/10/22 06:24:35;;;;;;;9.07;3.60;;;11.10;99.90;;;;;;4195939;28;20176;-72
2022/10/22 06:26:36;;;;;;;9.27;3.77;;;11.10;99.90;;;;;;4195832;28;20187;-73
2022/10/22 06:28:37;;;;;;;7.33;3.07;;;11.20;99.90;;;;;;4195769;28;20178;-72
2022/10/22 06:30:37;;;;;;;9.30;3.37;;;11.20;99.90;;;;;;4195195;28;20179;-72
2022/10/22 06:32:38;;;;;;;8.10;3.13;;;11.20;99.90;;;;;;4195688;28;20176;-72
2022/10/22 06:34:39;;;;;;;5.40;2.70;;;11.20;99.90;;;;;;4195790;28;20267;-72
2022/10/22 06:36:42;;;;;;;12.10;4.20;;;11.20;99.90;;;;;;4195645;28;20199;-72
2022/10/22 06:38:43;;;;;;;6.37;2.90;;;11.20;99.90;;;;;;4195685;28;20380;-72
2022/10/22 06:40:44;;;;;;;7.73;2.77;;;11.20;99.90;;;;;;4195028;28;20225;-73
2022/10/22 06:42:44;;;;;;;6.27;2.17;;;11.20;99.90;;;;;;4195878;28;20678;-72
2022/10/22 06:44:45;;;;;;;3.80;2.20;;;11.30;99.90;;;;;;4195552;28;20171;-72
2022/10/22 06:46:50;;;;;;;2.80;2.17;;;11.40;99.90;;;;;;4194792;28;20690;-72
2022/10/22 06:48:56;;;;;;;3.50;2.17;;;11.30;99.90;;;;;;4195411;28;20176;-72
2022/10/22 06:51:01;;;;;;;3.60;1.87;;;11.30;99.90;;;;;;4194992;28;20680;-72
2022/10/22 06:53:02;;;;;;;3.43;2.33;;;11.30;99.90;;;;;;4195596;28;20267;-73
2022/10/22 06:55:03;;;;;;;3.03;1.60;;;11.40;99.90;;;;;;4181810;28;20180;-72
2022/10/22 06:57:03;;;;;;;1.87;1.50;;;11.50;99.90;;;;;;4179092;28;20258;-72
2022/10/22 06:59:04;;;;;;;2.30;1.97;;;11.60;99.90;;;;;;4178740;28;20654;-72
2022/10/22 07:01:08;;;;;;;2.27;1.63;;;11.60;99.90;;;;;;4178330;28;20187;-72
2022/10/22 07:03:12;;;;;;;2.40;1.50;;;11.60;99.90;;;;;;4178887;28;20192;-73
2022/10/22 07:05:13;;;;;;;3.73;1.83;;;11.60;99.90;;;;;;4178947;28;20188;-72
2022/10/22 07:07:14;;;;;;;1.87;1.40;;;11.50;99.90;;;;;;4179565;28;20203;-72
2022/10/22 07:09:14;;;;;;;1.60;1.50;;;11.60;99.90;;;;;;4179284;28;20203;-72
2022/10/22 07:11:19;;;;;;;1.47;1.10;;;11.60;99.90;;;;;;4195186;28;20183;-71
2022/10/22 07:13:20;;;;;;;1.50;1.40;;;11.70;99.90;;;;;;4194823;28;20199;-71
2022/10/22 07:15:20;;;;;;;1.73;1.50;;;11.70;99.90;;;;;;4195932;28;20195;-71
2022/10/22 07:17:21;;;;;;;2.57;1.77;;;11.80;99.90;;;;;;4195868;28;20259;-71
2022/10/22 07:19:21;;;;;;;2.40;2.10;;;11.80;99.90;;;;;;4195893;28;20250;-71
2022/10/22 07:21:22;;;;;;;3.73;2.40;;;12.00;99.90;;;;;;4194851;28;20180;-71
2022/10/22 07:23:23;;;;;;;6.17;2.83;;;12.00;99.90;;;;;;4195626;28;20706;-71
2022/10/22 07:25:23;;;;;;;6.47;2.37;;;12.00;99.90;;;;;;4195646;28;20266;-71
2022/10/22 07:27:24;;;;;;;3.47;2.50;;;12.00;99.90;;;;;;4195448;28;20218;-71
2022/10/22 07:29:24;;;;;;;2.87;2.17;;;12.00;99.90;;;;;;4195567;28;20579;-71
2022/10/22 07:31:25;;;;;;;4.00;2.37;;;12.00;99.90;;;;;;4194852;28;20267;-71
2022/10/22 07:33:26;;;;;;;5.47;2.63;;;12.00;99.90;;;;;;4195880;28;20530;-72
2022/10/22 07:35:26;;;;;;;5.53;3.30;;;12.00;99.90;;;;;;4195663;28;20229;-71
2022/10/22 07:37:27;;;;;;;5.77;2.67;;;12.00;99.90;;;;;;4195377;28;20236;-71
2022/10/22 07:39:27;;;;;;;3.37;2.43;;;12.00;99.90;;;;;;4195472;28;20203;-72
2022/10/22 07:41:29;;;;;;;3.70;2.27;;;12.00;99.90;;;;;;4194709;28;20172;-72
2022/10/22 07:43:30;;;;;;;3.10;2.20;;;12.00;99.90;;;;;;4194880;28;20657;-71
2022/10/22 07:45:30;;;;;;;4.57;2.67;;;12.00;99.90;;;;;;4195112;28;20183;-72
2022/10/22 07:47:31;;;;;;;2.53;1.73;;;12.00;99.90;;;;;;4194952;28;20183;-72
2022/10/22 07:49:32;;;;;;;2.40;1.80;;;12.00;99.90;;;;;;4194882;28;20565;-72
2022/10/22 07:51:32;;;;;;;5.23;2.53;;;12.00;99.90;;;;;;4192872;28;20241;-72
2022/10/22 07:53:33;;;;;;;3.20;1.97;;;12.00;99.90;;;;;;4194699;28;20215;-72
2022/10/22 07:55:34;;;;;;;5.67;2.10;;;12.10;99.90;;;;;;4194870;28;20168;-72
2022/10/22 07:57:36;;;;;;;4.77;2.23;;;12.20;99.90;;;;;;4194850;28;20203;-72
2022/10/22 07:59:36;;;;;;;3.97;2.40;;;12.30;99.90;;;;;;4198098;28;20682;-72
2022/10/22 08:01:37;;;;;;;4.40;2.80;;;12.30;99.90;;;;;;4197619;28;20179;-72
2022/10/22 08:03:37;;;;;;;5.53;2.53;;;12.40;99.90;;;;;;4197950;28;20187;-72
2022/10/22 08:05:38;;;;;;;2.60;1.87;;;12.40;99.90;;;;;;4198003;28;20180;-72
2022/10/22 08:07:39;;;;;;;4.70;2.13;;;12.40;99.90;;;;;;4198198;28;20207;-72
2022/10/22 08:09:40;;;;;;;2.70;1.63;;;12.50;99.90;;;;;;4198004;28;20179;-72
2022/10/22 08:11:41;;;;;;;3.30;1.90;;;12.60;99.90;;;;;;4197412;28;20540;-72
2022/10/22 08:13:41;;;;;;;3.30;1.97;;;12.70;99.90;;;;;;4198006;28;20535;-72
2022/10/22 08:15:42;;;;;;;2.77;1.60;;;12.80;99.90;;;;;;4197845;28;20263;-72
2022/10/22 08:17:43;;;;;;;2.50;1.60;;;12.90;99.90;;;;;;4198230;28;20613;-72
2022/10/22 08:19:43;;;;;;;3.03;1.40;;;13.10;99.90;;;;;;4197590;28;20215;-72
2022/10/22 08:21:45;;;;;;;3.07;1.50;;;13.30;99.90;;;;;;4197064;28;20233;-72
2022/10/22 08:23:45;;;;;;;3.67;1.43;;;13.50;99.90;;;;;;4196409;28;20674;-72
2022/10/22 08:25:46;;;;;;;1.63;1.10;;;13.70;99.90;;;;;;4197702;28;20258;-72
2022/10/22 08:27:46;;;;;;;8.03;1.30;;;13.80;99.90;;;;;;4197985;28;20182;-72
2022/10/22 08:29:47;;;;;;;1.63;1.17;;;14.00;99.90;;;;;;4197747;28;20179;-72
2022/10/22 08:31:49;;;;;;;2.63;1.23;;;14.20;99.90;;;;;;4197074;28;20207;-72
2022/10/22 08:33:49;;;;;;;4.30;1.07;;;14.20;99.90;;;;;;4197243;28;20219;-72
2022/10/22 08:35:51;;;;;;;1.53;1.00;;;14.20;99.90;;;;;;4197413;28;20176;-72
2022/10/22 08:37:51;;;;;;;1.43;1.00;;;14.30;99.90;;;;;;4197703;28;20176;-72
2022/10/22 08:39:52;;;;;;;2.10;1.30;;;14.30;99.90;;;;;;4197480;28;20264;-72
2022/10/22 08:42:30;;;;;;;3.03;1.20;;;14.20;99.90;;;;;;4196741;28;20203;-72
2022/10/22 08:44:38;;;;;;;1.17;0.97;;;14.30;99.90;;;;;;4196072;28;20280;-72
2022/10/22 08:46:54;;;;;;;3.67;2.90;;;14.40;99.90;;;;;;4197670;28;20197;-71
2022/10/22 08:48:57;;;;;;;6.17;1.30;;;14.40;99.90;;;;;;4197597;28;20179;-71
2022/10/22 08:50:58;;;;;;;2.50;1.23;;;14.40;99.90;;;;;;4196762;28;20182;-71
2022/10/22 08:53:04;;;;;;;6.00;1.07;;;14.50;99.90;;;;;;4197124;28;20188;-72
2022/10/22 08:55:08;;;;;;;4.63;1.70;;;14.40;99.90;;;;;;4196189;28;20210;-72
2022/10/22 08:57:43;;;;;;;2.73;1.90;;;14.50;99.90;;;;;;4197276;28;20195;-72
2022/10/22 09:00:14;;;;;;;2.47;1.00;;;14.70;99.90;;;;;;4195715;28;20234;-72
2022/10/22 09:02:37;;;;;;;4.73;1.40;;;14.70;99.90;;;;;;4195652;28;20191;-72
2022/10/22 09:04:48;;;;;;;2.63;1.30;;;14.90;99.90;;;;;;4197225;28;20796;-71
2022/10/22 09:06:48;;;;;;;5.03;1.37;;;15.00;99.90;;;;;;4195768;28;20195;-72
2022/10/22 09:08:50;;;;;;;1.73;1.30;;;15.20;99.90;;;;;;4197060;28;20179;-71
2022/10/22 09:10:57;;;;;;;4.47;1.67;;;15.30;99.90;;;;;;4195249;28;20184;-72
2022/10/22 09:12:58;;;;;;;8.97;2.60;;;15.30;99.90;;;;;;4196373;28;20194;-71
2022/10/22 09:14:58;;;;;;;5.13;2.00;;;15.50;99.90;;;;;;4195839;28;20571;-71
2022/10/22 09:17:26;;;;;;;3.23;2.50;;;15.40;99.90;;;;;;4196615;28;20629;-72
2022/10/22 09:19:40;;;;;;;2.27;1.47;;;15.90;99.90;;;;;;4196754;28;20258;-72
2022/10/22 09:22:14;;;;;;;4.23;1.50;;;16.10;99.90;;;;;;4196387;28;20182;-72
2022/10/22 09:24:29;;;;;;;2.67;2.47;;;16.40;99.90;;;;;;4196825;28;20547;-71
2022/10/22 09:26:35;;;;;;;4.93;1.60;;;17.00;96.70;;;;;;4196813;28;20253;-71
2022/10/22 09:28:35;;;;;;;4.03;1.30;;;17.40;97.80;;;;;;4196769;28;20218;-71
2022/10/22 09:30:38;;;;;;;1.93;1.27;;;17.40;94.60;;;;;;4195997;28;20574;-71
2022/10/22 09:32:39;;;;;;;3.23;2.63;;;17.40;93.80;;;;;;4196726;28;20271;-72
2022/10/22 09:34:40;;;;;;;3.83;1.30;;;17.30;94.20;;;;;;4196530;28;20182;-72
2022/10/22 09:36:40;;;;;;;3.20;1.47;;;17.70;93.40;;;;;;4196391;28;20200;-72
2022/10/22 09:38:50;;;;;;;3.10;1.40;;;18.00;93.30;;;;;;4196742;28;20734;-72
2022/10/22 09:40:54;;;;;;;3.77;1.50;;;18.20;92.70;;;;;;4194507;28;20693;-71
2022/10/22 09:42:55;;;;;;;4.40;1.80;;;17.80;92.70;;;;;;4196454;28;20172;-71
2022/10/22 09:44:58;;;;;;;2.70;1.50;;;18.20;90.20;;;;;;4209424;28;20278;-71
2022/10/22 09:47:03;;;;;;;4.23;2.03;;;18.00;92.60;;;;;;4211972;28;20328;-71
2022/10/22 09:49:11;;;;;;;3.17;2.30;;;17.90;92.80;;;;;;4213339;28;20194;-71
2022/10/22 09:51:19;;;;;;;3.40;2.07;;;18.50;90.60;;;;;;4194563;28;20186;-70
2022/10/22 09:53:30;;;;;;;3.07;1.50;;;18.80;88.20;;;;;;4213385;28;20183;-71
2022/10/22 09:55:31;;;;;;;3.03;1.30;;;19.70;87.80;;;;;;4211877;28;20189;-71
2022/10/22 09:57:35;;;;;;;4.53;1.83;;;18.80;87.70;;;;;;4212151;28;20302;-71
2022/10/22 09:59:41;;;;;;;2.27;1.10;;;18.90;85.70;;;;;;4213143;28;20347;-72
2022/10/22 10:01:42;;;;;;;2.97;1.23;;;18.90;86.60;;;;;;4211082;28;20193;-71
2022/10/22 10:03:42;;;;;;;3.30;1.57;;;18.80;90.00;;;;;;4211699;28;20179;-71
2022/10/22 10:05:48;;;;;;;2.03;1.67;;;19.90;84.10;;;;;;4212913;28;20179;-70
2022/10/22 10:07:49;;;;;;;3.53;2.57;;;19.10;79.20;;;;;;4213181;28;20261;-70
2022/10/22 10:09:52;;;;;;;2.73;1.73;;;19.00;77.90;;;;;;4212765;28;20178;-70
2022/10/22 10:12:00;;;;;;;1.70;1.50;;;18.70;81.20;;;;;;4211126;28;20270;-70
2022/10/22 10:14:13;;;;;;;1.80;1.70;;;18.80;79.00;;;;;;4211718;28;20179;-70
2022/10/22 10:16:42;;;;;;;1.60;1.50;;;19.20;75.80;;;;;;4211583;28;20206;-70
2022/10/22 10:19:15;;;;;;;3.97;1.30;;;18.40;80.50;;;;;;4211382;28;20183;-70
2022/10/22 10:21:40;;;;;;;2.77;1.90;;;18.40;82.90;;;;;;4211607;28;20246;-68
2022/10/22 10:23:51;;;;;;;2.83;2.07;;;18.30;82.00;;;;;;4212418;28;20186;-67
2022/10/22 10:26:07;;;;;;;2.50;1.10;;;18.40;81.80;;;;;;4193215;28;20187;-68
2022/10/22 10:28:20;;;;;;;2.37;1.23;;;17.60;85.40;;;;;;4208964;28;20195;-69
2022/10/22 10:30:23;;;;;;;2.03;1.20;;;18.60;83.00;;;;;;4199878;28;20178;-68
2022/10/22 10:32:32;;;;;;;2.93;1.30;;;18.90;77.80;;;;;;4205287;28;20183;-68
2022/10/22 10:34:53;;;;;;;2.33;1.33;;;18.30;80.50;;;;;;4202006;28;20175;-68
2022/10/22 10:37:09;;;;;;;3.03;1.37;;;18.00;82.30;;;;;;4202120;28;20350;-68
2022/10/22 10:39:45;;;;;;;1.53;1.00;;;18.50;81.30;;;;;;4207317;28;20190;-67
2022/10/22 10:42:25;;;;;;;2.47;1.07;;;18.40;79.20;;;;;;4197196;28;20196;-68
2022/10/22 10:45:07;;;;;;;3.03;1.20;;;18.20;78.60;;;;;;4199779;28;20175;-68
2022/10/22 10:47:54;;;;;;;2.90;0.93;;;19.10;72.90;;;;;;4198593;28;20199;-68